Timeline UpdatesTrip UpdatesNews PostsPvt PostsTravel TipsAdmin PostsConv PostsFollowed PostsChat RequestsBlog PostsPNR Posts

Disclaimer
Search
 
 
Sat Aug 30, 2014 03:40:05 ISTHomeTrainsΣChainsAtlasPNRForumGalleryNewsFAQTripsMembersLoginFeedback
No Recent News for this Train
Other Trains in the News **new
Latest...
..
Tue Jul 01, 2014 (01:24PM)
⇐ Return Journey: Train# 53041

53042/Jaynagar - Howrah Passenger (UnReserved)

Sep 17 2013 (6:15PM)
Change Departure Station:
Change Arrival Station:
Post a Train Travel TipPost a Train Travel Tip **new
Post a Comment/Question/Picture/VideoPost a Comment/Question/Picture/Video
Pantry/Catering
✕ NO Pantry Car
✕ NO Catering
RSA - Rake Sharing
Rake/Coach Composition
Loco-SLR-GS-GS-GS-GS-GS-GS-GS-SLR
Loco
HWH/BWN WDM 2/3A
News    PNR    Forum    Time-Table    Availability    Fare Chart    Map    Arr/Dep History    Trips    Gallery    ΣChains    X/O    Timeline    
Travel Time: 0h 16m    1 halts    Distance: 12 km    Avg Speed: 45 km/hr
Type: Passenger
Zone: ER/Eastern
Departs @ 15:41 (Avg 3h 5m late)
Platform# ???
SMTWTFS
Rampurhat/RPH 
Arrives @ 15:57 (Avg 2h 53m late)
Platform# ???
SMTWTFS
Mallarpur/MLV 

1 halts. 1 intermediate Stations between Rampurhat and Mallarpur

Show ALL intermediate Stations  Show Old Time-Table

#CodeStation NameX/OArrivesAvgDepartsAvgHaltPFDay#KmSpeedElevZoneAddress
1JYGJaynagar (3)  -18:45+9--1-499.14168mECRDistt: Madhubani, Bihar
2KRHAKorahiaX  18:55-18:56-1m--1-492.44570mECRKorahia, Bihar
3KJIKhajauli  19:03+1419:04+161m--1-487.13970mECRMadhubani, Bihar
4LLPRLalit Lakshmipur  19:12-19:13-1m--1-481.94066mECRDokahar Rd, Bihar
5RJARajanagar  19:19+1719:20+221m--1-477.82765mECRRajnagar Distt: Madhubani, Bihar
6MBIMadhubani (3)X  19:42+1519:43+241m--1-467.94562mECRMadhubani, Bihar
7PDWPandaul  19:55+2719:56+281m--1-458.93059mECRMadhubani, Bihar
8UGNAUgna Halt  20:03-20:04-1m--1-455.43357mECRUgna Halt, Bihar
9SKISakri Junction (5)  20:12+2820:17+355m--1-451.14455mECRMadhubani, Bihar
10SSNSShaheed Suraj Narayan Singh Halt  20:21-20:22-1m--1-448.12252mECRDarbhanga, Bihar
11TRSTarsaraiX  20:32+3420:33+391m--1-444.43854mECRDarbhanga, Bihar
12BJIHBijuli Halt  20:39-20:40-1m--1-440.61253mECRBijuli Halt, Bihar
13KKHTKakarghattiO  20:54+3120:55+371m--1-437.8854mECRDarbhanga, Bihar
14DBGDarbhanga Junction (5)  21:45+521:55+910m--1-431.53854mECRDarbhanga, Bihar
15LSILaheria Sarai (1)X  22:03+2022:08+205m11-426.54452mECRDarbhanga, Bihar
16TLWAThalwaraX  22:14+2422:15+281m--1-422.03356mECRDarbhanga, Bihar
17HYTHaiaghatX  22:26+2822:27+301m--1-416.03051mECRDarbhanga, Bihar
18RBZRambhaddarpur  22:37+3122:38+351m--1-411.05051mECRSamastipur, Bihar
19KSPKishanpur  22:46+3522:47+401m--1-404.34751mECRSamastipur, Bihar
20MKPRMuktapur (1)  22:55+4222:56+491m11-398.11053mECRSamastipur, Bihar
21SPJSamastipur Junction (9)  23:20+1823:30+2710m--1-394.03655mECRSamastipur, Bihar
22UJPUjiarpur (2)  23:45+1:0423:46+1:111m--1-385.03151mECRSamastipur, Bihar
23NAZJNazirGanj (2)  23:58+1:0723:59+1:121m--1-378.73651mECRNazirGanj, Bihar
24DSSDalsingh Sarai (2)  00:12+1:0400:13+1:061m22-370.815 ECR06278-221238, Bihar
25STJTSathajagat (2)  00:31+1:0200:32+1:091m--2-366.32849mECRSathajagat, Bihar
26BCABachwara Junction (3)  00:46+1:0500:47+1:141m--2-359.83149mECRBegusarai, Bihar
27TGATeghra (3)  01:04+1:0201:05+1:081m--2-350.91948mECRBegusarai, Bihar
28BUJBarauni Flag (2)XO  01:20-01:21-1m--2-346.3549mECRDistt: Begusarai, Bihar
29BJUBarauni Junction (9)XO  01:55+4102:05+5710m42-343.63049mECRBegusarai, Bihar
30SAEDinkar Gram Simaria (3)  02:17+1:2302:18+1:491m--2-337.510228mECRBegusarai, Bihar
31RJORajendra Pul (1)  02:36+1:4002:37+2:171m12-334.63249mECRSimaria, Bihar
32HTZHathidah Junction (2)X  02:43-02:44-1m--2-331.42350mECRMusahari, Bihar
33BRYABarhiya (3)  03:08+1:4303:09+1:441m--2-322.12247mECRBarahiya, Bihar
34GGSYGanga Sahay  03:16-03:17-1m--2-319.42544mECRKIUL, Bihar
35DMRXDumri Halt (1)X  03:21-03:22-1m12-317.82849mECRNational Highway 80, Bihar
36DJSDhurani Jwas Halt  03:29-03:30-1m--2-314.52046mECRLakhisarai, Bihar
37MKBMankathaX  03:36+2:1003:37+2:181m--2-312.64247mECRNational Highway 80, Bihar
38LKRLuckeesarai Junction (2)XO  03:45+2:1803:46+2:201m--2-307.0252mECRLakhisarai, Bihar
39KIULKiul Junction (5)  04:28+1:1504:35+1:157m--2-305.64053mECRDist. Lakhisarai, Bihar
40DNREDhanauri  04:44+1:5104:45+1:521m--2-299.64248mERNational Highway 80, Bihar
41URENUren  04:52+1:5104:53+1:541m--2-294.75845mERUren, Bihar
42KJHKajra (2)  04:58+1:5504:59+1:561m--2-289.95550mERLakhisarai District, Bihar
43AHAAbhaipur (2)  05:07+1:5905:08+2:001m--2-282.64052mERAbhaipur, Bihar
44MSDNMasudan (2)  05:14+2:0105:15+2:021m--2-278.65145mERMasudan, Bihar
45DRHDharhara (2)  05:22+2:0205:23+2:021m--2-272.65455mERDharhara, Bihar
46DRTPDasharathpur (2)X  05:29+2:0305:30+2:051m--2-267.24348mERDharhara, Bihar
47JMPJamalpur Junction (4)X  05:39+2:0505:49+2:1110m--2-260.84759mERJamalpur 06344-243101, Bihar
48RPURRatanpur (2)  05:57+2:2405:58+2:241m--2-254.54946mERRatanpur Railway Station, Bihar
49BUPBariarpur (3)  06:04+2:2506:05+2:261m--2-249.61042mERMunger, Bihar
50KPRDKalyanpur Road (3)X  06:13+2:2606:14+2:281m--2-248.4940mERMunger, Bihar
51GNNAGangani (2)  06:22+2:2606:23+2:271m--2-247.211638mERGangania, Bihar
52SGGSultanGanj (3)  06:31+2:2706:32+2:371m--2-231.74442mERSultanganj, Bihar
53MVVMaheshi (2)  06:41-06:42-1m--2-225.14137mERTilakpur, Bihar
54AKNAkbarnagar (3)  06:47+2:3506:48+2:381m--2-221.64439mERTilakpur, Bihar
55CTMPChhit Makhanpur (2)  06:53-06:54-1m--2-218.03138mERBhaunathpur, Bihar
56MPYMurarpur (2)X  06:57-06:58-1m--2-216.45938mERMau, Bihar
57NATNathnagar (2)  07:03+2:1407:04+2:161m--2-211.52648mERBhagalpur, Bihar
58BGPBhagalpur Junction (6)X  07:15+2:2507:30+2:2415m--2-206.84549mERBhagalpur, Bihar
59SBOSabaur (3)X  07:40+2:1507:41+2:211m--2-199.22242mERSabour, Bihar
60LMMLailakh Mamalkha (2)  07:59+2:1508:00+2:151m--2-192.65836mERLailakh Mamlkha, Bihar
61GGAGhoga (2)  08:06+2:2008:07+2:341m--2-186.86942mERGhoga, Bihar
62EKCEkchari (1)  08:12+2:3708:13+2:391m12-181.14437mERNational Highway 80, Bihar
63CLGKahalgaon (2)  08:19+2:4308:20+2:531m12-176.74444mERBhagalpur, Bihar
64BKSLBikram Shila (2)X  08:31+2:5408:32+3:051m--2-168.71458mERBikram Shila, Bihar
65SVRPShivanarayanpur (2)X  08:47+3:0008:48+3:051m--2-165.22147mERShivanarayanpur, Bihar
66PPTPirpainti (2)X  09:14+2:5109:15+3:031m--2-156.34353mERBhagalpur, Bihar
67AMPLAmmapali (2)  09:21-09:22-1m--2-152.16340mERAmmapali, Bihar
68MZCMirza Cheuki (3)  09:26+3:1109:27+3:151m32-147.91138mERBihar, Bihar
69KRMAKaramtola (2)X  10:00+2:5210:01+2:561m22-141.81935mERNational Highway 80, Bihar
70SBGSahibganj Junction (3)  10:30+2:4910:40+3:0110m12-132.85838mERSahibganj, Jharkhand
71SLJSakrigali Junction (3)X  10:48+3:0010:49+3:061m--2-125.05345mERSakrigali, Jharkhand
72MJPMaharajpur (2)X  10:56+3:1110:57+3:201m--2-118.93334mERMoharajpur, Jharkhand
73KPTOKaranpur Ato  11:10+3:2011:11+3:211m--2-111.76039mERKaranpur, Jharkhand
74TLJTaljhari  11:18+3:2211:19+3:251m--2-104.73638mERTaljhari, Jharkhand
75KXEKalian Chak  11:27+3:2411:28+3:241m--2-99.94845mERKalian Chak, Jharkhand
76TPHTinpahar Junction (3)  11:34+3:1211:35+3:141m22-95.03645mERBamangawan, Jharkhand
77DDXDhamdhamia (2)  11:46+3:0311:47+3:031m--2-88.42546mERDhamdhamia, Jharkhand
78BKLEBakudi (3)  11:52+3:0811:53+3:121m--2-86.31465mERBakudi, Jharkhand
79BHWBarharwa Junction (3)  12:27+2:4912:37+2:5510m22-78.44936mERBarharwa, Jharkhand
80GMANGumani (3)  12:46+2:5912:47+3:001m--2-71.05731mERGumani, Jharkhand
81KLPKotalpukur (3)X  12:54+2:5412:55+2:541m--2-64.35640mERKotalpukur, Jharkhand
82TBBTilbhita (3)  13:03+3:0113:04+3:031m--2-56.84231mERTilbhita, Jharkhand
83PKRPakur (2)X  13:10+3:1213:11+3:131m22-52.53637mERDist:- Pakur, Jharkhand
84NGFNagarnabi (3)  13:20+3:2113:21+3:231m12-47.13430mERState Highway 5, Jharkhand
85RJGRajgram (3)  13:30+3:1013:31+3:121m22-42.05832mERDist - Birbhum, West Bengal
86BSBRBanshlai Bridge (2)  13:38+3:0413:39+3:061m--2-35.35035mERDist - Birbhum, West Bengal
87MRRMurarai (3)  13:45+2:2713:46+2:311m--2-30.35736mERDist - Birbhum, West Bengal
88CTRChatra (3)X  13:54+3:1913:55+3:211m--2-22.75742mERDist - Birbhum, West Bengal
89NHTNalhati Junction (4)  14:04+3:2614:06+3:402m22-14.15548mERDist - Birbhum, West Bengal
90SDLESwadinpur (3)XO  14:14+3:4214:15+3:421m--2-6.7644mERDIST-BIRBHUM, West Bengal
91RPH»Rampurhat (3)»X  15:26+3:0415:41+3:0515m--20.06241mERDIST - Birbhum, West Bengal
92TPFTarapith Road (2)  15:48+2:5015:49+2:521m--27.23945mERDist - Birbhum, West Bengal
93MLV•Mallarpur (3)•  15:57+2:5315:58+2:551m--212.47146mERDist - Birbhum, West Bengal
94GHLEGadadharpur (3)XO  16:05+2:5816:06+3:061m2220.71352mERDist - Birbhum, West Bengal
95SNTSainthia Junction (4)X  16:40+3:3316:41+3:341m4228.07758mERDist - Birbhum, West Bengal
96BSLEBataspur (2)X  16:47+2:4816:48+2:481m--235.72154mERDist - Birbhum, West Bengal
97AMPAhmadpur Junction (3)O  17:04+2:3717:05+2:401m--241.21746mERDist - Birbhum, West Bengal
98KPLEKopai (2)X  17:34+2:2417:35+2:241m--249.46148mERDist - Birbhum, West Bengal
99PNEPrantik (3)  17:42+2:2317:43+2:231m--256.54248mERDist - Birbhum, West Bengal
100BHPBolpur Shantiniketan (3)X  17:49+3:1817:52+3:193m--260.76959mERDist - Birbhum, West Bengal
101BDHBhedia (2)X  17:59+2:2718:00+2:271m--268.74041mERDist - Bardhaman, West Bengal
102PCQPichkurirdhal (3)  18:07+2:1718:08+2:171m--273.45338mERDist - Bardhaman, West Bengal
103GKHGuskara (2)X  18:15+2:3918:16+2:401m1279.63941mERDist - Bardhaman, West Bengal
104NRXNoadar Dhal (2)  18:26+2:0618:27+2:111m--286.13746mERdist - bardhaman, West Bengal
105BPSBanpas (3)  18:33+2:1218:34+2:121m--289.71146mERDist - Bardhaman, West Bengal
106JTLJhapater Dhal (4)XO  18:54+1:5818:55+1:581m--293.5836mERDist - Bardhaman, West Bengal
107KANKhana Junction (5)X  19:38+1:2219:39+1:221m--299.46542mERDist - Bardhaman, West Bengal
108TITTalit (4)XO  19:44+1:2419:45+1:231m--2104.84637mERDist - Bardhaman, West Bengal
109BWNBarddhaman Junction (8)X  19:55+3:1520:15+3:1420m--2112.54534mERDist - Barddhaman, West Bengal
110BDCBandel Junction (7)  21:45+1:1021:50+1:115m--2179.73814mERdist - HOOGHLY, West Bengal
111CNSChuchura (3)  21:56-21:57-1m--2183.53615mERDist - HOOGHLY - 712102, West Bengal
112CGRChandan Nagar (3)X  22:02+1:5022:03+1:541m--2186.54616mERDist -HOOGHLY - 712136, West Bengal
113SHESeoraphuli Junction (6)  22:17+1:5522:18+2:041m--2197.13813mERBaidyabati, West Bengal
114SRPSerampore (4)X  22:22+1:1422:23+1:151m--2199.63211mERdist - hooghly, West Bengal
115HWHKolkata Howrah Junction (23)  23:00+2:18-42219.2-10mERHowrah 711101, West Bengal
Scroll to Top
Scroll to Bottom